Time;durP1;ratioP1;P1;durP2;ratioP2;P2;SDS_P1;SDS_P2;PMS_P1;PMS_P2;Temp;Humidity;BMP_temperature;BMP_pressure;BME280_temperature;BME280_humidity;BME280_pressure;Samples;Min_cycle;Max_cycle;Signal;HPM_P1;HPM_P2
2022/05/31 00:01:48;;;;;;;1.30;1.05;;;21.00;50.30;;;;;;6172536;28;20053;-72
2022/05/31 00:04:49;;;;;;;1.80;1.10;;;21.00;50.30;;;;;;6173082;28;20034;-72
2022/05/31 00:07:50;;;;;;;2.67;1.52;;;21.00;50.30;;;;;;6186752;28;20034;-72
2022/05/31 00:10:50;;;;;;;1.48;0.90;;;21.00;50.30;;;;;;6196077;28;20080;-72
2022/05/31 00:13:51;;;;;;;1.27;0.98;;;21.00;50.30;;;;;;6174405;28;20188;-72
2022/05/31 00:16:52;;;;;;;1.35;1.08;;;21.00;50.30;;;;;;6175264;28;20033;-72
2022/05/31 00:19:53;;;;;;;2.20;1.23;;;21.00;50.30;;;;;;6192286;28;20454;-72
2022/05/31 00:22:53;;;;;;;1.83;0.93;;;21.00;50.30;;;;;;6183703;28;20026;-72
2022/05/31 00:25:54;;;;;;;2.63;1.48;;;21.00;50.30;;;;;;6170808;28;20041;-72
2022/05/31 00:28:54;;;;;;;1.70;1.20;;;21.00;50.30;;;;;;6190377;28;20033;-72
2022/05/31 00:31:55;;;;;;;1.38;1.08;;;21.00;50.30;;;;;;6188699;28;20166;-72
2022/05/31 00:34:58;;;;;;;1.38;1.10;;;21.00;51.00;;;;;;6172315;28;20030;-72
2022/05/31 00:38:00;;;;;;;1.45;0.90;;;21.00;50.30;;;;;;6183245;28;20110;-72
2022/05/31 00:41:26;;;;;;;2.13;1.30;;;21.00;50.40;;;;;;6196310;28;20041;-72
2022/05/31 00:44:28;;;;;;;1.42;1.02;;;21.00;50.30;;;;;;6174726;28;20015;-72
2022/05/31 00:47:32;;;;;;;2.13;1.13;;;21.00;50.30;;;;;;6176701;28;20033;-72
2022/05/31 00:50:56;;;;;;;1.48;1.02;;;21.00;50.30;;;;;;6194431;28;20027;-72
2022/05/31 00:54:01;;;;;;;0.93;0.80;;;21.00;50.30;;;;;;6176948;28;20425;-72
2022/05/31 00:57:02;;;;;;;1.25;0.90;;;21.00;50.30;;;;;;6171062;28;20336;-72
2022/05/31 01:00:12;;;;;;;1.38;0.98;;;21.00;50.40;;;;;;6194287;28;20405;-72
2022/05/31 01:03:16;;;;;;;1.48;1.10;;;21.00;50.40;;;;;;6183381;28;20382;-72
2022/05/31 01:06:16;;;;;;;1.20;0.90;;;21.00;50.40;;;;;;6194157;28;20377;-72
2022/05/31 01:09:17;;;;;;;1.45;0.90;;;21.00;50.40;;;;;;6177515;28;20093;-72
2022/05/31 01:12:19;;;;;;;1.33;1.02;;;21.00;50.40;;;;;;6167186;28;20026;-72
2022/05/31 01:15:20;;;;;;;1.92;1.13;;;21.00;50.40;;;;;;6194314;28;20120;-72
2022/05/31 01:18:20;;;;;;;1.20;0.80;;;21.00;50.40;;;;;;6186204;28;20030;-73
2022/05/31 01:21:22;;;;;;;1.70;1.00;;;21.00;50.40;;;;;;6169397;28;20025;-72
2022/05/31 01:24:24;;;;;;;1.90;1.35;;;21.00;50.40;;;;;;6187390;28;20081;-72
2022/05/31 01:27:53;;;;;;;1.27;0.95;;;21.00;50.40;;;;;;6195705;28;20056;-72
2022/05/31 01:31:11;;;;;;;1.30;0.93;;;21.00;50.50;;;;;;6171847;28;20110;-72
2022/05/31 01:34:21;;;;;;;1.05;0.75;;;21.00;50.40;;;;;;6184194;28;20054;-72
2022/05/31 01:37:49;;;;;;;2.15;0.75;;;21.00;50.40;;;;;;6192814;28;20030;-72
2022/05/31 01:41:01;;;;;;;1.23;1.00;;;21.00;50.40;;;;;;6184516;28;20026;-72
2022/05/31 01:44:08;;;;;;;1.60;0.90;;;21.00;50.40;;;;;;6180109;28;20022;-72
2022/05/31 01:47:09;;;;;;;1.25;0.85;;;21.00;50.50;;;;;;6194309;28;20117;-72
2022/05/31 01:50:14;;;;;;;1.58;1.00;;;21.00;50.50;;;;;;6194213;28;20034;-72
2022/05/31 01:53:16;;;;;;;1.33;0.98;;;21.00;50.40;;;;;;6191188;28;20088;-72
2022/05/31 01:56:17;;;;;;;1.30;1.00;;;21.00;50.40;;;;;;6193641;28;20118;-72
2022/05/31 01:59:18;;;;;;;1.17;0.85;;;21.00;50.50;;;;;;6185300;28;20065;-72
2022/05/31 02:02:20;;;;;;;1.70;1.10;;;21.00;50.50;;;;;;6171130;28;20074;-72
2022/05/31 02:05:21;;;;;;;0.90;0.70;;;20.90;50.40;;;;;;6185989;28;20022;-72
2022/05/31 02:08:23;;;;;;;1.08;0.80;;;21.00;50.40;;;;;;6190378;28;20052;-72
2022/05/31 02:11:25;;;;;;;1.20;0.95;;;21.00;50.50;;;;;;6171022;28;20029;-73
2022/05/31 02:14:25;;;;;;;1.10;0.80;;;20.90;50.30;;;;;;6180053;28;20153;-72
2022/05/31 02:17:26;;;;;;;1.17;0.77;;;21.00;50.50;;;;;;6194987;28;20373;-72
2022/05/31 02:20:26;;;;;;;1.55;0.93;;;20.90;50.40;;;;;;6178292;28;20046;-74
2022/05/31 02:23:27;;;;;;;0.95;0.70;;;21.00;50.50;;;;;;6167254;28;20058;-74
2022/05/31 02:26:27;;;;;;;1.23;0.80;;;21.00;50.50;;;;;;6193948;28;20037;-72
2022/05/31 02:29:32;;;;;;;1.00;0.75;;;20.90;50.40;;;;;;6184043;28;20027;-72
2022/05/31 02:32:33;;;;;;;0.90;0.77;;;20.90;50.40;;;;;;6170717;28;20050;-72
2022/05/31 02:35:34;;;;;;;1.10;0.70;;;20.90;50.40;;;;;;6183452;28;20921;-72
2022/05/31 02:38:34;;;;;;;1.27;0.70;;;20.90;50.40;;;;;;6192744;28;20026;-72
2022/05/31 02:41:35;;;;;;;1.30;0.75;;;20.90;50.50;;;;;;6170752;28;20031;-72
2022/05/31 02:44:37;;;;;;;0.90;0.60;;;20.90;50.40;;;;;;6175407;28;20029;-72
2022/05/31 02:47:39;;;;;;;1.48;0.80;;;20.90;50.50;;;;;;6194374;28;20038;-72
2022/05/31 02:50:40;;;;;;;1.13;0.80;;;20.90;50.50;;;;;;6179146;28;20187;-72
2022/05/31 02:53:40;;;;;;;0.75;0.70;;;20.90;50.50;;;;;;6180751;28;20385;-72
2022/05/31 02:56:41;;;;;;;1.15;0.60;;;20.90;50.50;;;;;;6174447;28;20035;-72
2022/05/31 02:59:41;;;;;;;0.70;0.60;;;20.90;50.50;;;;;;6170064;28;20385;-72
2022/05/31 03:02:42;;;;;;;0.82;0.63;;;20.90;50.50;;;;;;6172671;28;20038;-72
2022/05/31 03:05:43;;;;;;;1.20;0.60;;;20.90;50.50;;;;;;6185923;28;20038;-74
2022/05/31 03:08:43;;;;;;;1.05;0.70;;;20.90;50.50;;;;;;6197062;28;20077;-74
2022/05/31 03:11:58;;;;;;;0.50;0.50;;;20.90;50.50;;;;;;6176389;28;20026;-74
2022/05/31 03:15:06;;;;;;;1.05;0.70;;;20.90;50.50;;;;;;6178773;28;20401;-75
2022/05/31 03:18:19;;;;;;;0.90;0.70;;;20.90;50.50;;;;;;6197320;28;20540;-74
2022/05/31 03:21:26;;;;;;;0.68;0.68;;;20.90;50.50;;;;;;6179110;28;20034;-74
2022/05/31 03:24:37;;;;;;;1.02;0.70;;;20.90;50.60;;;;;;6172195;28;20030;-74
2022/05/31 03:27:37;;;;;;;0.77;0.70;;;20.90;50.50;;;;;;6173585;28;20058;-74
2022/05/31 03:30:38;;;;;;;0.73;0.55;;;20.90;50.50;;;;;;6170077;28;20251;-74
2022/05/31 03:33:39;;;;;;;1.05;0.70;;;20.90;50.50;;;;;;6169257;28;20047;-74
2022/05/31 03:36:39;;;;;;;0.93;0.70;;;20.90;50.50;;;;;;6189942;28;20512;-74
2022/05/31 03:39:40;;;;;;;0.80;0.60;;;20.90;50.50;;;;;;6196701;28;20117;-74
2022/05/31 03:42:40;;;;;;;0.93;0.77;;;20.90;50.50;;;;;;6173805;28;20030;-75
2022/05/31 03:45:43;;;;;;;0.75;0.60;;;20.90;50.50;;;;;;6180665;28;20034;-75
2022/05/31 03:48:43;;;;;;;0.95;0.60;;;20.90;50.60;;;;;;6197785;28;20038;-74
2022/05/31 03:51:44;;;;;;;0.73;0.63;;;20.90;50.50;;;;;;6180893;28;20433;-74
2022/05/31 03:54:45;;;;;;;0.63;0.50;;;20.90;50.50;;;;;;6173015;28;20077;-74
2022/05/31 03:57:49;;;;;;;0.93;0.65;;;20.90;50.50;;;;;;6194490;28;20088;-74
2022/05/31 04:00:50;;;;;;;1.20;0.70;;;20.90;50.50;;;;;;6190396;28;20051;-74
2022/05/31 04:03:50;;;;;;;1.10;0.80;;;20.90;50.50;;;;;;6170594;28;20416;-74
2022/05/31 04:06:51;;;;;;;0.55;0.50;;;20.90;50.50;;;;;;6186045;28;20069;-74
2022/05/31 04:09:52;;;;;;;0.77;0.60;;;20.90;50.50;;;;;;6196366;28;20030;-74
2022/05/31 04:12:52;;;;;;;0.82;0.60;;;20.90;50.50;;;;;;6174680;28;20037;-74
2022/05/31 04:16:19;;;;;;;0.88;0.63;;;20.90;50.50;;;;;;6176791;28;20109;-74
2022/05/31 04:19:20;;;;;;;0.90;0.50;;;20.90;50.60;;;;;;6192295;28;20034;-74
2022/05/31 04:22:20;;;;;;;1.00;0.68;;;20.90;50.50;;;;;;6179551;28;20038;-72
2022/05/31 04:25:21;;;;;;;0.57;0.50;;;20.90;50.60;;;;;;6171203;28;20066;-72
2022/05/31 04:28:21;;;;;;;0.70;0.60;;;20.90;50.50;;;;;;6194880;28;20042;-72
2022/05/31 04:31:22;;;;;;;0.80;0.57;;;20.90;50.60;;;;;;6188908;28;20560;-72
2022/05/31 04:34:23;;;;;;;0.75;0.60;;;20.90;50.50;;;;;;6171845;28;20062;-73
2022/05/31 04:37:23;;;;;;;0.90;0.70;;;20.90;50.60;;;;;;6186584;28;20018;-72
2022/05/31 04:40:24;;;;;;;0.50;0.50;;;20.90;50.50;;;;;;6196813;28;20034;-74
2022/05/31 04:43:24;;;;;;;1.08;0.60;;;20.90;50.80;;;;;;6185295;28;20050;-74
2022/05/31 04:46:28;;;;;;;0.63;0.50;;;20.90;50.50;;;;;;6174925;28;20077;-75
2022/05/31 04:49:29;;;;;;;0.80;0.60;;;20.90;50.50;;;;;;6195067;28;20045;-74
2022/05/31 04:52:30;;;;;;;0.80;0.70;;;20.90;50.60;;;;;;6182012;28;20059;-75
2022/05/31 04:55:30;;;;;;;0.63;0.50;;;20.90;50.60;;;;;;6169991;28;20025;-74
2022/05/31 04:58:31;;;;;;;0.98;0.65;;;20.90;50.50;;;;;;6190373;28;20113;-74
2022/05/31 05:01:35;;;;;;;0.63;0.60;;;20.90;50.50;;;;;;6180040;28;20632;-72
2022/05/31 05:04:35;;;;;;;0.90;0.63;;;20.90;51.30;;;;;;6187312;28;20030;-72
2022/05/31 05:07:36;;;;;;;1.38;0.80;;;20.90;48.90;;;;;;6192878;28;20034;-72
2022/05/31 05:10:36;;;;;;;2.38;0.90;;;21.00;47.90;;;;;;6178766;28;20066;-72
2022/05/31 05:13:37;;;;;;;1.05;0.65;;;21.10;47.50;;;;;;6188236;28;20029;-72
2022/05/31 05:16:38;;;;;;;1.98;0.90;;;21.20;47.20;;;;;;6181508;28;20193;-72
2022/05/31 05:19:38;;;;;;;1.73;0.77;;;21.20;46.70;;;;;;6180272;28;20497;-73
2022/05/31 05:22:39;;;;;;;0.75;0.65;;;21.30;46.50;;;;;;6182204;28;20023;-71
2022/05/31 05:25:39;;;;;;;6.63;1.58;;;21.30;46.30;;;;;;6171991;28;20034;-72
2022/05/31 05:31:59;;;;;;;3.80;1.10;;;21.30;46.00;;;;;;6177877;28;20381;-71
2022/05/31 05:35:00;;;;;;;3.63;1.33;;;21.40;45.90;;;;;;6168643;28;20034;-73
2022/05/31 05:38:01;;;;;;;2.15;0.98;;;21.40;45.70;;;;;;6149285;28;20026;-71
2022/05/31 05:41:02;;;;;;;5.28;1.40;;;21.40;45.50;;;;;;6189815;28;20045;-71
2022/05/31 05:44:02;;;;;;;2.85;1.27;;;21.40;45.30;;;;;;6183477;28;20023;-72
2022/05/31 05:47:14;;;;;;;3.42;1.17;;;21.40;45.10;;;;;;6192240;28;20073;-72
2022/05/31 05:50:14;;;;;;;4.28;1.55;;;21.40;44.80;;;;;;6193738;28;20077;-72
2022/05/31 05:53:15;;;;;;;3.97;1.50;;;21.40;44.40;;;;;;6155675;28;20019;-72
2022/05/31 05:56:16;;;;;;;3.38;1.50;;;21.40;44.20;;;;;;6172022;28;20113;-73
2022/05/31 05:59:18;;;;;;;7.15;1.70;;;21.50;44.20;;;;;;6158870;28;20030;-72
2022/05/31 06:02:28;;;;;;;3.45;1.50;;;21.50;44.00;;;;;;6179905;28;20030;-72
2022/05/31 06:05:29;;;;;;;3.58;1.50;;;21.60;43.90;;;;;;6180070;28;20582;-72
2022/05/31 06:08:34;;;;;;;2.20;1.20;;;21.60;43.60;;;;;;6173860;28;20143;-72
2022/05/31 06:11:40;;;;;;;4.75;1.48;;;21.70;43.90;;;;;;6172277;28;20055;-72
2022/05/31 06:14:55;;;;;;;2.55;1.05;;;21.60;43.90;;;;;;6176916;28;20027;-72
2022/05/31 06:17:58;;;;;;;2.90;1.10;;;21.70;44.00;;;;;;6176870;28;20498;-72
2022/05/31 06:21:05;;;;;;;2.65;1.23;;;21.70;44.00;;;;;;6188911;28;20105;-72
2022/05/31 06:24:06;;;;;;;3.90;1.50;;;21.70;44.00;;;;;;6172249;28;20026;-72
2022/05/31 06:27:07;;;;;;;1.92;0.93;;;21.70;44.10;;;;;;6167032;28;20181;-72
2022/05/31 06:30:08;;;;;;;3.58;1.10;;;21.70;44.20;;;;;;6172301;28;20039;-72
2022/05/31 06:33:09;;;;;;;3.08;1.33;;;21.70;44.20;;;;;;6192097;28;20065;-72
2022/05/31 06:36:09;;;;;;;1.63;1.00;;;21.70;44.40;;;;;;6200436;28;20057;-73
2022/05/31 06:39:10;;;;;;;1.67;0.95;;;21.70;44.50;;;;;;6183006;28;20034;-72
2022/05/31 06:42:11;;;;;;;2.13;1.13;;;21.70;44.60;;;;;;6200428;28;20026;-72
2022/05/31 06:45:12;;;;;;;1.77;0.80;;;21.70;44.70;;;;;;6200106;28;20026;-72
2022/05/31 06:48:12;;;;;;;1.23;0.85;;;21.70;44.70;;;;;;6196776;28;20552;-72
2022/05/31 06:56:48;;;;;;;1.52;0.90;;;21.70;44.90;;;;;;6176147;28;20027;-72
2022/05/31 06:58:14;;;;;;;1.20;0.80;;;21.70;44.90;;;;;;6124532;29;20035;-72
2022/05/31 07:01:15;;;;;;;1.98;1.00;;;21.80;44.50;;;;;;6115025;29;20051;-72
2022/05/31 07:04:16;;;;;;;1.55;0.88;;;21.90;44.70;;;;;;6186812;28;20034;-72
2022/05/31 07:07:17;;;;;;;2.67;1.10;;;21.80;44.60;;;;;;6190658;28;20066;-72
2022/05/31 07:10:17;;;;;;;2.97;1.10;;;21.80;44.60;;;;;;6188906;28;20026;-72
2022/05/31 07:13:18;;;;;;;0.90;0.60;;;21.80;44.60;;;;;;6163419;28;20025;-72
2022/05/31 07:16:19;;;;;;;1.30;0.70;;;21.80;44.60;;;;;;6193657;28;20438;-72
2022/05/31 07:19:19;;;;;;;1.98;0.80;;;21.80;44.50;;;;;;6191391;28;20493;-72
2022/05/31 07:22:20;;;;;;;1.67;0.90;;;21.80;44.50;;;;;;6184826;28;20022;-72
2022/05/31 07:25:20;;;;;;;1.75;0.90;;;21.90;44.10;;;;;;6193234;28;20066;-72
2022/05/31 07:28:21;;;;;;;1.30;0.80;;;21.90;44.00;;;;;;6199379;28;20030;-72
2022/05/31 07:31:21;;;;;;;1.50;0.77;;;21.90;44.00;;;;;;6175923;28;20103;-72
2022/05/31 07:34:25;;;;;;;1.00;0.75;;;21.90;43.90;;;;;;6176593;28;20057;-72
2022/05/31 07:37:26;;;;;;;2.83;1.20;;;21.90;43.90;;;;;;6199297;28;20082;-72
2022/05/31 07:40:27;;;;;;;5.28;1.00;;;22.00;44.10;;;;;;6181899;28;20023;-71
2022/05/31 07:43:27;;;;;;;2.17;0.63;;;21.90;44.30;;;;;;6198707;28;20440;-71
2022/05/31 07:46:29;;;;;;;4.22;0.73;;;21.90;44.20;;;;;;6198386;28;20043;-73
2022/05/31 07:49:29;;;;;;;1.75;1.00;;;21.90;44.30;;;;;;6194042;28;20029;-71
2022/05/31 07:52:32;;;;;;;2.00;0.82;;;21.80;44.40;;;;;;6186657;28;20474;-72
2022/05/31 07:55:33;;;;;;;1.65;0.75;;;21.80;44.40;;;;;;6182406;28;20035;-72
2022/05/31 07:58:38;;;;;;;2.00;0.77;;;21.80;44.40;;;;;;6196246;28;20030;-72
2022/05/31 08:01:40;;;;;;;4.05;0.70;;;21.90;44.40;;;;;;6168273;28;20519;-71
2022/05/31 08:04:40;;;;;;;2.10;0.77;;;21.80;44.30;;;;;;6172988;28;20389;-73
2022/05/31 08:07:42;;;;;;;3.67;0.90;;;21.80;44.50;;;;;;6171080;28;20038;-72
2022/05/31 08:10:42;;;;;;;2.95;0.80;;;21.70;45.30;;;;;;6185987;28;20061;-72
2022/05/31 08:13:45;;;;;;;0.95;0.60;;;21.60;45.40;;;;;;6174378;28;20470;-72
2022/05/31 08:16:45;;;;;;;3.97;0.73;;;21.50;45.60;;;;;;6193596;28;20149;-72
2022/05/31 08:19:46;;;;;;;2.15;0.70;;;21.40;46.60;;;;;;6194478;28;20035;-73
2022/05/31 08:22:48;;;;;;;1.77;0.60;;;21.40;46.20;;;;;;6173853;28;20038;-72
2022/05/31 08:25:48;;;;;;;2.08;0.70;;;21.40;46.30;;;;;;6187900;28;20038;-72
2022/05/31 08:28:49;;;;;;;1.90;0.90;;;21.30;46.40;;;;;;6196918;28;20053;-72
2022/05/31 08:31:50;;;;;;;3.35;1.40;;;21.30;46.20;;;;;;6178793;28;20470;-72
2022/05/31 08:34:50;;;;;;;4.75;1.40;;;21.30;45.40;;;;;;6178948;28;20042;-72
2022/05/31 08:37:51;;;;;;;3.78;1.08;;;21.30;45.90;;;;;;6188610;28;20417;-72
2022/05/31 08:41:06;;;;;;;3.53;1.30;;;21.30;46.20;;;;;;6182469;28;20058;-72
2022/05/31 08:44:22;;;;;;;6.25;1.08;;;21.30;46.60;;;;;;6177968;28;20030;-72
2022/05/31 08:47:43;;;;;;;2.63;1.05;;;21.30;47.10;;;;;;6176081;28;20422;-72
2022/05/31 08:58:00;;;;;;;1.95;0.98;;;21.30;47.20;;;;;;6196763;28;20266;-72
2022/05/31 09:01:03;;;;;;;2.70;1.25;;;21.20;46.50;;;;;;6189138;28;20034;-72
2022/05/31 09:04:39;;;;;;;2.45;1.30;;;21.20;47.30;;;;;;6169416;28;20034;-73
2022/05/31 09:07:52;;;;;;;4.75;1.20;;;21.20;46.90;;;;;;6187050;28;20038;-72
2022/05/31 09:11:01;;;;;;;1.55;0.90;;;21.20;47.80;;;;;;6191223;28;20034;-72
2022/05/31 09:14:14;;;;;;;1.42;1.05;;;21.20;47.80;;;;;;6173012;28;20031;-72
2022/05/31 09:17:24;;;;;;;2.15;0.80;;;21.20;47.90;;;;;;6188415;28;20084;-72
2022/05/31 09:20:46;;;;;;;2.08;1.08;;;21.20;48.20;;;;;;6196096;28;20505;-73
2022/05/31 09:23:47;;;;;;;1.27;0.85;;;21.20;48.10;;;;;;6172675;28;20046;-72
2022/05/31 09:27:07;;;;;;;2.05;1.00;;;21.20;47.90;;;;;;6183099;28;20232;-73
2022/05/31 09:30:31;;;;;;;3.10;1.27;;;21.20;48.10;;;;;;6196131;28;20046;-72
2022/05/31 09:33:41;;;;;;;1.80;0.93;;;21.20;48.30;;;;;;6172551;28;20050;-72
2022/05/31 09:36:56;;;;;;;2.33;1.08;;;21.20;48.20;;;;;;6192734;28;20026;-72
2022/05/31 09:40:34;;;;;;;1.08;0.95;;;21.20;47.80;;;;;;6196437;28;20034;-72
2022/05/31 09:43:49;;;;;;;2.00;1.00;;;21.20;48.00;;;;;;6195274;28;20030;-72
2022/05/31 09:47:00;;;;;;;2.40;0.90;;;21.20;48.10;;;;;;6187537;28;20062;-72
2022/05/31 09:50:02;;;;;;;1.27;0.80;;;21.20;47.80;;;;;;6172244;28;20081;-72
2022/05/31 09:57:05;;;;;;;1.90;1.00;;;21.20;48.50;;;;;;6168012;28;20045;-72
2022/05/31 09:59:50;;;;;;;1.80;0.90;;;21.20;47.90;;;;;;6195237;28;20038;-72
2022/05/31 10:03:01;;;;;;;1.52;0.90;;;21.20;48.50;;;;;;6196139;28;20026;-72
2022/05/31 10:06:18;;;;;;;1.73;0.90;;;21.10;48.50;;;;;;6199536;28;20039;-72
2022/05/31 10:09:21;;;;;;;1.63;0.90;;;21.10;48.40;;;;;;6177089;28;20031;-72
2022/05/31 10:12:27;;;;;;;1.30;0.90;;;21.10;48.60;;;;;;6186218;28;20034;-72
2022/05/31 10:15:44;;;;;;;1.00;0.80;;;21.10;48.50;;;;;;6201088;28;20035;-72
2022/05/31 10:19:08;;;;;;;1.05;0.80;;;21.10;48.50;;;;;;6180984;28;20481;-72
2022/05/31 10:22:20;;;;;;;1.40;0.90;;;21.10;48.60;;;;;;6182619;28;20023;-72
2022/05/31 10:25:27;;;;;;;1.23;0.85;;;21.10;48.70;;;;;;6183273;28;20030;-72
2022/05/31 10:28:41;;;;;;;1.65;0.90;;;21.10;48.70;;;;;;6184325;28;20038;-72
2022/05/31 10:31:45;;;;;;;1.10;0.80;;;21.10;48.50;;;;;;6187157;28;20027;-73
2022/05/31 10:34:47;;;;;;;1.38;0.73;;;21.10;48.70;;;;;;6181308;28;20030;-72
2022/05/31 10:37:59;;;;;;;2.67;0.90;;;21.10;48.70;;;;;;6200066;28;20037;-72
2022/05/31 10:41:05;;;;;;;1.40;0.70;;;21.10;48.90;;;;;;6194078;28;20498;-72
2022/05/31 10:44:29;;;;;;;1.35;0.70;;;21.10;48.80;;;;;;6200375;28;20030;-72
2022/05/31 10:47:30;;;;;;;0.90;0.65;;;21.10;48.90;;;;;;6186008;28;20043;-72
2022/05/31 10:50:56;;;;;;;3.42;0.80;;;21.10;48.70;;;;;;6176133;28;20536;-72
2022/05/31 10:54:12;;;;;;;1.20;0.77;;;21.10;48.90;;;;;;6192634;28;20640;-72
2022/05/31 10:57:27;;;;;;;0.60;0.60;;;21.10;48.90;;;;;;6197826;28;20042;-72
2022/05/31 11:00:42;;;;;;;2.72;0.93;;;21.10;48.90;;;;;;6197028;28;20479;-72
2022/05/31 11:03:50;;;;;;;1.42;0.90;;;21.10;48.50;;;;;;6198332;28;20486;-72
2022/05/31 11:07:29;;;;;;;0.73;0.70;;;21.10;48.70;;;;;;6197015;28;20061;-72
2022/05/31 11:14:30;;;;;;;1.90;1.17;;;21.10;49.00;;;;;;6175649;28;20042;-72
2022/05/31 11:17:52;;;;;;;2.83;0.93;;;21.10;48.90;;;;;;6174302;28;20019;-72
2022/05/31 11:21:03;;;;;;;1.77;0.98;;;21.10;49.00;;;;;;6178423;28;20465;-72
2022/05/31 11:24:30;;;;;;;2.45;1.20;;;21.10;48.70;;;;;;6189694;28;20029;-72
2022/05/31 11:27:39;;;;;;;1.42;1.05;;;21.10;48.60;;;;;;6189882;28;20501;-72
2022/05/31 11:30:40;;;;;;;1.65;0.90;;;21.10;48.90;;;;;;6174391;28;20049;-72
2022/05/31 11:33:55;;;;;;;2.22;1.00;;;21.10;49.00;;;;;;6189786;28;20047;-72
2022/05/31 11:37:14;;;;;;;1.58;1.00;;;21.10;49.00;;;;;;6196975;28;20050;-72
2022/05/31 11:40:36;;;;;;;1.65;1.10;;;21.10;49.00;;;;;;6196161;28;20022;-72
2022/05/31 11:43:59;;;;;;;2.03;1.00;;;21.10;49.10;;;;;;6191187;28;20026;-72
2022/05/31 11:47:32;;;;;;;1.38;1.00;;;21.10;49.20;;;;;;6175702;28;20103;-72
2022/05/31 11:50:54;;;;;;;7.85;1.00;;;21.10;49.00;;;;;;6160094;28;20035;-72
2022/05/31 11:54:22;;;;;;;5.53;1.30;;;21.10;49.20;;;;;;6183078;28;20015;-72
2022/05/31 11:57:41;;;;;;;2.28;0.82;;;21.20;49.00;;;;;;6193498;28;20030;-72
2022/05/31 12:01:26;;;;;;;1.45;0.82;;;21.30;48.90;;;;;;6198984;28;20061;-72
2022/05/31 12:04:35;;;;;;;6.47;2.45;;;21.40;48.30;;;;;;6187071;28;20033;-73
2022/05/31 12:08:13;;;;;;;8.70;2.10;;;21.50;48.20;;;;;;6173748;28;20043;-72
2022/05/31 12:11:47;;;;;;;7.57;2.20;;;21.40;48.40;;;;;;6161950;28;20592;-72
2022/05/31 12:14:51;;;;;;;9.02;2.55;;;21.40;48.60;;;;;;6177621;28;20039;-72
2022/05/31 12:18:01;;;;;;;10.80;2.53;;;21.40;48.70;;;;;;6195399;28;20481;-72
2022/05/31 12:21:29;;;;;;;13.48;2.40;;;21.30;48.80;;;;;;6198055;28;20026;-72
2022/05/31 12:24:55;;;;;;;3.90;2.08;;;21.30;48.80;;;;;;6197637;28;20035;-72
2022/05/31 12:28:06;;;;;;;7.50;2.10;;;21.30;48.70;;;;;;6176437;28;20060;-72
2022/05/31 12:31:20;;;;;;;4.18;1.85;;;21.30;48.40;;;;;;6194796;28;20022;-72
2022/05/31 12:34:21;;;;;;;4.97;2.10;;;21.30;48.20;;;;;;6190582;28;20105;-72
2022/05/31 12:37:22;;;;;;;8.88;2.55;;;21.30;47.40;;;;;;6197127;28;20031;-73
2022/05/31 12:40:26;;;;;;;6.03;2.10;;;21.40;46.60;;;;;;6196094;28;20069;-72
2022/05/31 12:43:32;;;;;;;6.18;2.53;;;21.40;46.90;;;;;;6197259;28;20061;-72
2022/05/31 12:46:36;;;;;;;7.43;2.00;;;21.40;47.80;;;;;;6197411;28;20035;-72
2022/05/31 12:49:49;;;;;;;3.83;1.80;;;21.40;48.10;;;;;;6190602;28;20019;-72
2022/05/31 12:53:23;;;;;;;7.50;1.80;;;21.40;48.20;;;;;;6174117;28;20027;-72
2022/05/31 12:56:36;;;;;;;6.03;2.20;;;21.30;48.30;;;;;;6187480;28;20034;-72
2022/05/31 12:59:43;;;;;;;6.10;2.50;;;21.30;48.40;;;;;;6178370;28;20058;-72
2022/05/31 13:02:43;;;;;;;6.65;2.25;;;21.30;48.40;;;;;;6196705;28;20508;-72
2022/05/31 13:06:10;;;;;;;6.47;2.80;;;21.30;48.60;;;;;;6182985;28;20073;-73
2022/05/31 13:09:31;;;;;;;4.65;2.40;;;21.30;48.60;;;;;;6172762;28;20501;-72
2022/05/31 13:19:38;;;;;;;7.95;2.80;;;21.30;48.10;;;;;;6194706;28;20023;-72
2022/05/31 13:22:44;;;;;;;7.15;3.17;;;21.30;48.00;;;;;;6173251;28;20390;-73
2022/05/31 13:25:49;;;;;;;7.25;2.83;;;21.30;46.80;;;;;;6179837;28;20042;-72
2022/05/31 13:28:56;;;;;;;7.13;2.88;;;21.30;46.50;;;;;;6195544;28;20034;-72
2022/05/31 13:32:00;;;;;;;12.32;3.33;;;21.30;46.80;;;;;;6176174;28;20019;-72
2022/05/31 13:35:24;;;;;;;6.60;3.08;;;21.30;47.60;;;;;;6190141;28;20875;-72
2022/05/31 13:38:28;;;;;;;5.07;2.38;;;21.30;47.30;;;;;;6196170;28;20493;-72
2022/05/31 13:41:30;;;;;;;5.77;2.30;;;21.30;47.10;;;;;;6181049;28;20019;-72
2022/05/31 13:44:39;;;;;;;5.07;2.70;;;21.30;47.00;;;;;;6172290;28;20027;-72
2022/05/31 13:47:59;;;;;;;4.07;2.17;;;21.30;46.80;;;;;;6183732;28;20096;-72
2022/05/31 13:51:12;;;;;;;5.45;2.30;;;21.30;47.00;;;;;;6181573;28;20041;-72
2022/05/31 13:54:17;;;;;;;6.95;2.85;;;21.30;47.20;;;;;;6195970;28;20384;-73
2022/05/31 13:57:21;;;;;;;7.30;2.63;;;21.30;47.70;;;;;;6192300;28;20517;-72
2022/05/31 14:00:36;;;;;;;5.28;2.70;;;21.30;47.30;;;;;;6195668;28;20026;-72
2022/05/31 14:03:41;;;;;;;4.35;2.22;;;21.30;47.50;;;;;;6194557;28;20102;-71
2022/05/31 14:06:42;;;;;;;4.80;2.00;;;21.30;46.80;;;;;;6192209;28;20042;-72
2022/05/31 14:09:54;;;;;;;6.05;2.40;;;21.30;46.50;;;;;;6172934;28;20113;-72
2022/05/31 14:12:59;;;;;;;6.05;2.30;;;21.30;46.60;;;;;;6193619;28;20026;-72
2022/05/31 14:16:15;;;;;;;4.07;2.03;;;21.30;46.60;;;;;;6186949;28;20038;-72
2022/05/31 14:19:19;;;;;;;5.38;1.90;;;21.30;47.60;;;;;;6170656;28;20494;-72
2022/05/31 14:22:30;;;;;;;5.18;2.10;;;21.30;47.80;;;;;;6187026;28;20053;-72
2022/05/31 14:25:32;;;;;;;5.47;2.05;;;21.30;47.70;;;;;;6190929;28;20030;-72
2022/05/31 14:28:32;;;;;;;5.72;2.17;;;21.30;48.00;;;;;;6170896;28;20115;-72
2022/05/31 14:31:33;;;;;;;6.18;2.10;;;21.30;48.00;;;;;;6173940;28;20110;-72
2022/05/31 14:34:41;;;;;;;6.22;2.42;;;21.30;47.90;;;;;;6174096;28;20524;-72
2022/05/31 14:37:46;;;;;;;7.32;2.33;;;21.30;48.00;;;;;;6194778;28;20030;-72
2022/05/31 14:41:20;;;;;;;7.53;2.67;;;21.30;48.10;;;;;;6194117;28;20068;-73
2022/05/31 14:44:50;;;;;;;9.98;3.05;;;21.30;48.40;;;;;;6170477;28;20073;-72
2022/05/31 14:47:51;;;;;;;14.15;5.22;;;21.30;48.30;;;;;;6187962;28;20038;-72
2022/05/31 14:50:57;;;;;;;12.52;4.72;;;21.30;48.10;;;;;;6194508;28;20022;-72
2022/05/31 14:53:58;;;;;;;14.77;5.65;;;21.30;48.20;;;;;;6174989;28;20030;-72
2022/05/31 14:57:07;;;;;;;14.20;5.70;;;21.30;48.20;;;;;;6183388;28;20096;-72
2022/05/31 15:00:12;;;;;;;15.55;5.47;;;21.30;48.30;;;;;;6199312;28;20085;-72
2022/05/31 15:03:23;;;;;;;21.95;8.75;;;21.30;48.40;;;;;;6181569;28;20031;-72
2022/05/31 15:06:33;;;;;;;11.25;5.35;;;21.30;48.30;;;;;;6176916;28;20054;-72
2022/05/31 15:09:35;;;;;;;14.82;5.88;;;21.30;48.60;;;;;;6198359;28;20076;-73
2022/05/31 15:19:28;;;;;;;23.58;9.30;;;21.30;48.50;;;;;;6174453;28;20022;-72
2022/05/31 15:22:28;;;;;;;12.27;5.35;;;21.30;48.50;;;;;;6177266;28;20531;-72
2022/05/31 15:25:29;;;;;;;21.52;8.30;;;21.30;48.60;;;;;;6198368;28;20050;-72
2022/05/31 15:28:29;;;;;;;32.45;11.60;;;21.30;48.50;;;;;;6198932;28;20507;-73
2022/05/31 15:31:39;;;;;;;20.83;8.98;;;21.30;48.50;;;;;;6195952;28;20061;-72
2022/05/31 15:34:39;;;;;;;14.32;6.25;;;21.30;48.50;;;;;;6178024;28;20047;-73
2022/05/31 15:37:40;;;;;;;32.28;9.32;;;21.30;48.50;;;;;;6197996;28;20150;-72
2022/05/31 15:40:42;;;;;;;41.60;8.98;;;21.30;47.50;;;;;;6198567;28;20121;-72
2022/05/31 15:43:52;;;;;;;26.02;7.05;;;21.30;46.90;;;;;;6198074;28;20037;-72
2022/05/31 15:46:52;;;;;;;20.75;6.13;;;21.30;46.90;;;;;;6198327;28;20117;-72
2022/05/31 15:49:53;;;;;;;19.70;6.00;;;21.30;46.10;;;;;;6191730;28;20031;-72
2022/05/31 15:52:54;;;;;;;21.10;6.88;;;21.30;45.80;;;;;;6182441;28;20473;-72
2022/05/31 15:55:54;;;;;;;20.23;7.05;;;21.30;46.00;;;;;;6173699;28;20039;-72
2022/05/31 15:58:55;;;;;;;21.75;7.90;;;21.30;46.70;;;;;;6189906;28;20531;-72
2022/05/31 16:01:56;;;;;;;22.60;7.50;;;21.30;47.00;;;;;;6191511;28;20023;-72
2022/05/31 16:04:56;;;;;;;19.23;7.05;;;21.30;47.30;;;;;;6180547;28;20125;-73
2022/05/31 16:07:57;;;;;;;17.48;7.18;;;21.30;47.30;;;;;;6194096;28;20505;-73
2022/05/31 16:10:57;;;;;;;14.40;6.55;;;21.40;47.70;;;;;;6194008;28;20026;-72
2022/05/31 16:13:58;;;;;;;18.10;6.93;;;21.40;47.90;;;;;;6184020;28;20061;-73
2022/05/31 16:16:59;;;;;;;17.50;6.65;;;21.40;47.90;;;;;;6192217;28;20030;-73
2022/05/31 16:20:00;;;;;;;16.70;6.55;;;21.40;48.00;;;;;;6160531;28;20065;-73
2022/05/31 16:23:01;;;;;;;14.82;6.57;;;21.40;48.30;;;;;;6173823;28;20026;-73
2022/05/31 16:26:02;;;;;;;15.75;6.18;;;21.30;48.30;;;;;;6192604;28;20176;-73
2022/05/31 16:29:07;;;;;;;15.70;6.68;;;21.30;48.50;;;;;;6175877;28;20031;-72
2022/05/31 16:32:10;;;;;;;14.52;5.63;;;21.30;48.60;;;;;;6182468;28;20137;-73
2022/05/31 16:35:12;;;;;;;16.17;5.70;;;21.30;48.60;;;;;;6179387;28;20054;-73
2022/05/31 16:41:33;;;;;;;14.75;5.90;;;21.30;48.80;;;;;;6193184;28;20052;-73
2022/05/31 16:44:34;;;;;;;11.43;5.38;;;21.20;48.90;;;;;;6192751;28;20046;-72
2022/05/31 16:47:34;;;;;;;12.40;5.07;;;21.20;49.00;;;;;;6190151;28;20374;-73